Time;durP1;ratioP1;P1;durP2;ratioP2;P2;SDS_P1;SDS_P2;PMS_P1;PMS_P2;Temp;Humidity;BMP_temperature;BMP_pressure;BME280_temperature;BME280_humidity;BME280_pressure;Samples;Min_cycle;Max_cycle;Signal;HPM_P1;HPM_P2
2023/05/13 00:00:38;;;;;;;4.47;4.25;;;;;;;;;;6307443;22;20015;-90
2023/05/13 00:03:05;;;;;;;6.90;4.20;;;;;;;;;;6281771;22;20384;-91
2023/05/13 00:05:31;;;;;;;4.55;4.28;;;;;;;;;;6306517;22;20073;-90
2023/05/13 00:08:00;;;;;;;5.00;4.60;;;;;;;;;;6280967;22;20555;-91
2023/05/13 00:10:26;;;;;;;5.82;4.43;;;;;;;;;;6307385;22;20345;-91
2023/05/13 00:12:53;;;;;;;4.72;4.38;;;;;;;;;;6282449;22;20445;-91
2023/05/13 00:15:21;;;;;;;5.13;4.80;;;;;;;;;;6306863;22;20042;-91
2023/05/13 00:17:50;;;;;;;4.65;4.25;;;;;;;;;;6307667;22;20022;-91
2023/05/13 00:20:19;;;;;;;5.00;4.57;;;;;;;;;;6281397;22;20023;-90
2023/05/13 00:22:45;;;;;;;7.25;4.38;;;;;;;;;;6282117;22;20019;-91
2023/05/13 00:25:16;;;;;;;5.07;4.75;;;;;;;;;;6282565;22;20018;-91
2023/05/13 00:27:42;;;;;;;5.03;4.60;;;;;;;;;;6282073;22;20043;-91
2023/05/13 00:30:14;;;;;;;7.00;5.15;;;;;;;;;;6281891;22;20098;-91
2023/05/13 00:32:42;;;;;;;5.18;4.78;;;;;;;;;;6308115;22;20193;-91
2023/05/13 00:35:11;;;;;;;5.30;5.00;;;;;;;;;;6282454;22;20064;-92
2023/05/13 00:37:51;;;;;;;;;;;;;;;;;;;;;
2023/05/13 00:40:24;;;;;;;5.28;4.88;;;;;;;;;;6308767;22;20020;-91
2023/05/13 00:42:56;;;;;;;6.03;5.47;;;;;;;;;;6308850;22;20019;-91
2023/05/13 00:45:27;;;;;;;5.57;5.13;;;;;;;;;;6283326;22;20340;-92
2023/05/13 00:47:54;;;;;;;5.88;5.43;;;;;;;;;;6284608;22;20121;-91
2023/05/13 00:50:20;;;;;;;6.13;5.35;;;;;;;;;;6310198;22;20050;-91
2023/05/13 00:52:52;;;;;;;6.00;5.50;;;;;;;;;;6284721;22;20047;-91
2023/05/13 00:55:21;;;;;;;6.05;5.55;;;;;;;;;;6287224;22;20441;-92
2023/05/13 00:57:50;;;;;;;6.43;6.03;;;;;;;;;;6285535;22;20026;-91
2023/05/13 01:00:19;;;;;;;6.43;5.10;;;;;;;;;;6304635;22;20003;-92
2023/05/13 01:02:55;;;;;;;6.63;5.95;;;;;;;;;;6308953;22;20003;-90
2023/05/13 01:05:24;;;;;;;6.78;6.38;;;;;;;;;;6293529;22;20017;-91
2023/05/13 01:08:01;;;;;;;7.05;5.75;;;;;;;;;;6312910;22;20042;-91
2023/05/13 01:10:48;;;;;;;6.18;5.68;;;;;;;;;;6285353;22;20022;-91
2023/05/13 01:13:16;;;;;;;5.50;5.20;;;;;;;;;;6309747;22;20015;-91
2023/05/13 01:15:51;;;;;;;7.22;6.28;;;;;;;;;;6282616;22;20022;-91
2023/05/13 01:18:26;;;;;;;8.77;6.47;;;;;;;;;;6283205;22;20345;-91
2023/05/13 01:20:55;;;;;;;6.75;6.10;;;;;;;;;;6283028;22;20012;-91
2023/05/13 01:23:22;;;;;;;7.20;6.80;;;;;;;;;;6282393;22;20019;-91
2023/05/13 01:25:50;;;;;;;7.20;6.57;;;;;;;;;;6282754;22;20016;-91
2023/05/13 01:28:19;;;;;;;7.10;6.30;;;;;;;;;;6282760;22;20061;-91
2023/05/13 01:30:49;;;;;;;7.18;6.63;;;;;;;;;;6282639;22;20015;-91
2023/05/13 01:33:20;;;;;;;7.20;6.80;;;;;;;;;;6283302;22;20090;-92
2023/05/13 01:35:48;;;;;;;7.32;6.63;;;;;;;;;;6308403;22;20019;-91
2023/05/13 01:38:18;;;;;;;7.28;6.72;;;;;;;;;;6282403;22;20394;-91
2023/05/13 01:40:47;;;;;;;7.75;7.05;;;;;;;;;;6282730;22;20527;-91
2023/05/13 01:43:17;;;;;;;7.18;6.70;;;;;;;;;;6282758;22;20019;-91
2023/05/13 01:45:49;;;;;;;6.95;6.47;;;;;;;;;;6307582;22;20011;-91
2023/05/13 01:48:17;;;;;;;7.72;7.03;;;;;;;;;;6282719;22;20053;-91
2023/05/13 01:50:46;;;;;;;8.35;7.63;;;;;;;;;;6309146;22;20011;-91
2023/05/13 01:53:30;;;;;;;7.47;6.82;;;;;;;;;;6282336;22;20444;-91
2023/05/13 01:55:56;;;;;;;7.00;6.57;;;;;;;;;;6282637;22;20435;-91
2023/05/13 01:58:22;;;;;;;7.53;6.72;;;;;;;;;;6283282;22;20022;-91
2023/05/13 02:00:51;;;;;;;8.75;7.05;;;;;;;;;;6282386;22;20050;-91
2023/05/13 02:03:19;;;;;;;7.85;7.18;;;;;;;;;;6282268;22;20294;-91
2023/05/13 02:05:48;;;;;;;8.10;7.38;;;;;;;;;;6307886;22;20023;-91
2023/05/13 02:08:17;;;;;;;7.95;7.30;;;;;;;;;;6281760;22;20058;-91
2023/05/13 02:10:53;;;;;;;;;;;;;;;;;;;;;
2023/05/13 02:13:25;;;;;;;8.38;7.63;;;;;;;;;;6309287;22;20019;-91
2023/05/13 02:15:59;;;;;;;7.90;7.35;;;;;;;;;;6282474;22;20336;-91
2023/05/13 02:18:28;;;;;;;7.73;7.10;;;;;;;;;;6283796;22;20064;-92
2023/05/13 02:20:56;;;;;;;8.20;7.60;;;;;;;;;;6308399;22;20064;-91
2023/05/13 02:23:30;;;;;;;8.25;7.75;;;;;;;;;;6283030;22;20499;-91
2023/05/13 02:26:01;;;;;;;8.43;7.72;;;;;;;;;;6308756;22;20092;-92
2023/05/13 02:28:27;;;;;;;8.00;7.22;;;;;;;;;;6308910;22;20376;-91
2023/05/13 02:31:01;;;;;;;7.95;7.03;;;;;;;;;;6308140;22;20449;-91
2023/05/13 02:33:27;;;;;;;8.38;7.78;;;;;;;;;;6308515;22;20026;-90
2023/05/13 02:36:01;;;;;;;8.23;7.50;;;;;;;;;;6308333;22;20338;-91
2023/05/13 02:38:27;;;;;;;8.35;7.65;;;;;;;;;;6282302;22;20038;-91
2023/05/13 02:40:56;;;;;;;7.85;7.22;;;;;;;;;;6282054;22;20023;-91
2023/05/13 02:43:30;;;;;;;9.20;7.55;;;;;;;;;;6282289;22;20019;-91
2023/05/13 02:45:58;;;;;;;7.90;7.33;;;;;;;;;;6307857;22;20376;-91
2023/05/13 02:48:24;;;;;;;8.10;7.45;;;;;;;;;;6307964;22;20406;-91
2023/05/13 02:50:50;;;;;;;8.43;7.82;;;;;;;;;;6308114;22;20098;-90
2023/05/13 02:53:19;;;;;;;7.80;7.30;;;;;;;;;;6282261;22;20330;-90
2023/05/13 02:55:45;;;;;;;8.50;7.88;;;;;;;;;;6282234;22;20015;-91
2023/05/13 02:58:14;;;;;;;8.13;7.55;;;;;;;;;;6282307;22;20068;-90
2023/05/13 03:00:41;;;;;;;8.30;7.57;;;;;;;;;;6282810;22;20347;-90
2023/05/13 03:03:10;;;;;;;8.32;7.63;;;;;;;;;;6282544;22;20065;-91
2023/05/13 03:05:36;;;;;;;8.82;8.23;;;;;;;;;;6281567;22;20345;-90
2023/05/13 03:08:05;;;;;;;7.90;7.22;;;;;;;;;;6282509;22;20019;-91
2023/05/13 03:10:33;;;;;;;8.68;7.90;;;;;;;;;;6282610;22;20459;-90
2023/05/13 03:13:00;;;;;;;8.70;7.95;;;;;;;;;;6307545;22;20015;-91
2023/05/13 03:15:26;;;;;;;9.25;8.32;;;;;;;;;;6281225;22;20046;-91
2023/05/13 03:17:54;;;;;;;8.23;7.55;;;;;;;;;;6282347;22;20026;-91
2023/05/13 03:20:22;;;;;;;8.77;7.97;;;;;;;;;;6282466;22;20098;-90
2023/05/13 03:22:48;;;;;;;8.45;7.80;;;;;;;;;;6285872;22;20445;-91
2023/05/13 03:25:17;;;;;;;8.93;8.35;;;;;;;;;;6282453;22;20015;-91
2023/05/13 03:27:43;;;;;;;8.70;7.88;;;;;;;;;;6282382;22;20022;-91
2023/05/13 03:30:13;;;;;;;8.55;7.75;;;;;;;;;;6282657;22;20026;-91
2023/05/13 03:32:39;;;;;;;8.40;7.78;;;;;;;;;;6308101;22;20019;-92
2023/05/13 03:35:07;;;;;;;9.02;8.32;;;;;;;;;;6282630;22;20022;-92
2023/05/13 03:37:33;;;;;;;8.48;7.88;;;;;;;;;;6308577;22;20102;-92
2023/05/13 03:40:00;;;;;;;8.65;7.93;;;;;;;;;;6282415;22;20442;-92
2023/05/13 03:42:29;;;;;;;9.73;8.52;;;;;;;;;;6309177;22;20011;-92
2023/05/13 03:45:15;;;;;;;9.30;8.70;;;;;;;;;;6281953;22;20015;-93
2023/05/13 03:47:42;;;;;;;8.85;8.13;;;;;;;;;;6282865;22;20429;-92
2023/05/13 03:50:08;;;;;;;9.43;8.70;;;;;;;;;;6282749;22;20441;-92
2023/05/13 03:52:37;;;;;;;9.75;8.95;;;;;;;;;;6307812;22;20051;-92
2023/05/13 03:55:04;;;;;;;9.88;9.07;;;;;;;;;;6282802;22;20093;-93
2023/05/13 03:57:30;;;;;;;9.95;9.15;;;;;;;;;;6282427;22;20022;-92
2023/05/13 03:59:56;;;;;;;9.50;8.80;;;;;;;;;;6282500;22;20105;-92
2023/05/13 04:02:24;;;;;;;10.95;9.95;;;;;;;;;;6282678;22;20015;-92
2023/05/13 04:04:51;;;;;;;10.40;9.63;;;;;;;;;;6282066;22;20049;-92
2023/05/13 04:07:17;;;;;;;9.93;9.05;;;;;;;;;;6282568;22;20484;-92
2023/05/13 04:09:43;;;;;;;9.75;9.00;;;;;;;;;;6282670;22;20019;-92
2023/05/13 04:12:09;;;;;;;9.95;9.15;;;;;;;;;;6282551;22;20017;-92
2023/05/13 04:14:38;;;;;;;10.20;9.32;;;;;;;;;;6307434;22;20015;-92
2023/05/13 04:17:05;;;;;;;9.55;8.60;;;;;;;;;;6282267;22;20044;-92
2023/05/13 04:19:31;;;;;;;9.82;9.13;;;;;;;;;;6282811;22;20307;-92
2023/05/13 04:22:00;;;;;;;9.90;9.07;;;;;;;;;;6282950;22;20445;-92
2023/05/13 04:24:26;;;;;;;10.90;10.10;;;;;;;;;;6282385;22;20027;-93
2023/05/13 04:26:52;;;;;;;11.15;10.13;;;;;;;;;;6308154;22;20011;-92
2023/05/13 04:29:20;;;;;;;10.40;9.50;;;;;;;;;;6281861;22;20016;-92
2023/05/13 04:31:56;;;;;;;10.77;9.75;;;;;;;;;;6282100;22;20023;-92
2023/05/13 04:34:25;;;;;;;11.32;10.18;;;;;;;;;;6282435;22;20015;-92
2023/05/13 04:36:58;;;;;;;10.70;9.65;;;;;;;;;;6282055;22;20012;-92
2023/05/13 04:39:24;;;;;;;11.00;9.90;;;;;;;;;;6308565;22;20064;-92
2023/05/13 04:42:00;;;;;;;11.38;10.38;;;;;;;;;;6282350;22;20054;-92
2023/05/13 04:44:26;;;;;;;11.20;10.18;;;;;;;;;;6281626;22;20023;-92
2023/05/13 04:46:55;;;;;;;10.70;10.05;;;;;;;;;;6307551;22;20020;-93
2023/05/13 04:49:22;;;;;;;11.07;10.23;;;;;;;;;;6307760;22;20064;-92
2023/05/13 04:51:58;;;;;;;12.25;11.15;;;;;;;;;;6282704;22;20409;-93
2023/05/13 04:54:24;;;;;;;12.25;11.25;;;;;;;;;;6307422;22;20023;-92
2023/05/13 04:56:51;;;;;;;13.20;10.90;;;;;;;;;;6281481;22;20465;-93
2023/05/13 04:59:19;;;;;;;11.30;10.40;;;;;;;;;;6307587;22;20061;-93
2023/05/13 05:01:47;;;;;;;11.55;10.65;;;;;;;;;;6281606;22;20449;-92
2023/05/13 05:04:14;;;;;;;10.88;10.05;;;;;;;;;;6307258;22;20015;-93
2023/05/13 05:06:40;;;;;;;11.23;10.25;;;;;;;;;;6281910;22;20015;-92
2023/05/13 05:09:06;;;;;;;12.02;11.02;;;;;;;;;;6307826;22;20018;-93
2023/05/13 05:11:35;;;;;;;13.05;11.77;;;;;;;;;;6307943;22;20338;-92
2023/05/13 05:14:01;;;;;;;13.13;11.90;;;;;;;;;;6281899;22;20476;-92
2023/05/13 05:16:27;;;;;;;12.52;11.50;;;;;;;;;;6281427;22;20053;-93
2023/05/13 05:18:53;;;;;;;13.27;12.13;;;;;;;;;;6282293;22;20015;-93
2023/05/13 05:21:20;;;;;;;14.02;12.65;;;;;;;;;;6308103;22;20055;-93
2023/05/13 05:23:46;;;;;;;12.68;11.50;;;;;;;;;;6281225;22;20402;-93
2023/05/13 05:26:12;;;;;;;13.20;11.82;;;;;;;;;;6281551;22;20038;-93
2023/05/13 05:28:38;;;;;;;13.75;12.65;;;;;;;;;;6282198;22;20472;-93
2023/05/13 05:31:08;;;;;;;14.07;12.88;;;;;;;;;;6283386;22;20046;-94
2023/05/13 05:33:35;;;;;;;16.25;14.63;;;;;;;;;;6283942;22;20015;-93
2023/05/13 05:36:04;;;;;;;15.85;14.45;;;;;;;;;;6284010;22;20011;-93
2023/05/13 05:38:30;;;;;;;16.73;15.30;;;;;;;;;;6283335;22;20015;-94
2023/05/13 05:40:58;;;;;;;15.90;14.55;;;;;;;;;;6283805;22;20050;-93
2023/05/13 05:43:25;;;;;;;17.00;15.32;;;;;;;;;;6283500;22;20019;-94
2023/05/13 05:45:53;;;;;;;17.08;15.73;;;;;;;;;;6282921;22;20025;-93
2023/05/13 05:48:22;;;;;;;16.38;15.05;;;;;;;;;;6283546;22;20015;-94
2023/05/13 05:50:48;;;;;;;18.33;16.58;;;;;;;;;;6283834;22;20015;-93
2023/05/13 05:53:22;;;;;;;18.38;16.63;;;;;;;;;;6308968;22;20027;-94
2023/05/13 05:55:51;;;;;;;19.23;17.52;;;;;;;;;;6283966;22;20038;-94
2023/05/13 05:58:19;;;;;;;16.25;14.75;;;;;;;;;;6284995;22;20050;-94
2023/05/13 06:00:46;;;;;;;18.02;16.42;;;;;;;;;;6299611;22;20010;-93
2023/05/13 06:03:12;;;;;;;17.35;16.00;;;;;;;;;;6334404;22;20073;-93
2023/05/13 06:05:39;;;;;;;17.50;15.90;;;;;;;;;;6309294;22;20023;-94
2023/05/13 06:08:14;;;;;;;17.20;15.75;;;;;;;;;;6335511;22;20019;-94
2023/05/13 06:10:41;;;;;;;17.48;15.70;;;;;;;;;;6306820;22;20015;-93
2023/05/13 06:13:07;;;;;;;17.00;15.40;;;;;;;;;;6303181;22;20023;-92
2023/05/13 06:15:35;;;;;;;17.58;15.90;;;;;;;;;;6300949;22;20027;-93
2023/05/13 06:18:04;;;;;;;16.63;14.95;;;;;;;;;;6284641;22;20019;-93
2023/05/13 06:20:30;;;;;;;15.75;14.32;;;;;;;;;;6309611;22;20386;-93
2023/05/13 06:22:56;;;;;;;16.23;14.80;;;;;;;;;;6283816;22;20026;-93
2023/05/13 06:25:23;;;;;;;15.23;14.13;;;;;;;;;;6283128;22;20069;-93
2023/05/13 06:27:53;;;;;;;14.93;13.63;;;;;;;;;;6284250;22;20064;-93
2023/05/13 06:30:28;;;;;;;15.23;13.90;;;;;;;;;;6283076;22;20093;-93
2023/05/13 06:32:54;;;;;;;;;;;;;;;;;;6284169;22;20019;-92
2023/05/13 06:35:23;;;;;;;14.90;13.52;;;;;;;;;;6310001;22;19914;-92
2023/05/13 06:37:49;;;;;;;14.32;13.23;;;;;;;;;;6286781;22;20019;-92
2023/05/13 06:40:15;;;;;;;13.75;12.60;;;;;;;;;;6283342;22;20525;-93
2023/05/13 06:42:46;;;;;;;13.43;12.43;;;;;;;;;;6308214;22;20018;-93
2023/05/13 06:45:12;;;;;;;13.85;12.63;;;;;;;;;;6282116;22;20015;-93
2023/05/13 06:47:50;;;;;;;13.55;12.30;;;;;;;;;;6282255;22;20433;-93
2023/05/13 06:50:18;;;;;;;13.20;12.00;;;;;;;;;;6309201;22;20066;-93
2023/05/13 06:52:52;;;;;;;14.18;12.98;;;;;;;;;;6307518;22;20073;-93
2023/05/13 06:55:18;;;;;;;13.10;11.93;;;;;;;;;;6308248;22;20016;-92
2023/05/13 06:57:52;;;;;;;12.63;11.70;;;;;;;;;;6283236;22;20054;-92
2023/05/13 07:00:18;;;;;;;12.80;11.70;;;;;;;;;;6322974;22;20015;-92
2023/05/13 07:02:44;;;;;;;12.73;11.63;;;;;;;;;;6331344;22;19999;-91
2023/05/13 07:05:13;;;;;;;12.13;11.13;;;;;;;;;;6306622;22;20052;-92
2023/05/13 07:07:42;;;;;;;10.80;10.00;;;;;;;;;;6298756;22;20023;-94
2023/05/13 07:10:10;;;;;;;12.95;11.55;;;;;;;;;;6312414;22;20011;-92
2023/05/13 07:12:37;;;;;;;10.85;9.95;;;;;;;;;;6285920;22;20019;-93
2023/05/13 07:15:03;;;;;;;11.10;10.20;;;;;;;;;;6286023;22;20338;-93
2023/05/13 07:17:30;;;;;;;12.00;11.00;;;;;;;;;;6285334;22;20019;-93
2023/05/13 07:19:58;;;;;;;11.70;10.50;;;;;;;;;;6283330;22;20453;-92
2023/05/13 07:22:24;;;;;;;11.65;10.63;;;;;;;;;;6282982;22;20072;-92
2023/05/13 07:24:50;;;;;;;10.95;9.82;;;;;;;;;;6283463;22;20023;-92
2023/05/13 07:27:22;;;;;;;11.27;10.30;;;;;;;;;;6283248;22;20019;-92
2023/05/13 07:29:48;;;;;;;11.18;10.18;;;;;;;;;;6282469;22;20030;-92
2023/05/13 07:32:16;;;;;;;11.23;10.15;;;;;;;;;;6283083;22;20441;-93
2023/05/13 07:34:42;;;;;;;9.90;9.20;;;;;;;;;;6282572;22;20015;-93
2023/05/13 07:37:19;;;;;;;;;;;;;;;;;;;;;
2023/05/13 07:39:47;;;;;;;9.45;8.55;;;;;;;;;;6308684;22;20022;-92
2023/05/13 07:42:19;;;;;;;9.15;8.30;;;;;;;;;;6282336;22;20022;-92
2023/05/13 07:44:47;;;;;;;8.77;8.18;;;;;;;;;;6308696;22;20011;-92
2023/05/13 07:47:13;;;;;;;9.20;8.13;;;;;;;;;;6308614;22;20015;-92
2023/05/13 07:49:39;;;;;;;8.23;7.53;;;;;;;;;;6282195;22;20062;-92
2023/05/13 07:52:08;;;;;;;9.00;8.27;;;;;;;;;;6280968;22;20015;-93
2023/05/13 07:54:36;;;;;;;8.55;7.63;;;;;;;;;;6281836;22;20057;-92
2023/05/13 07:57:03;;;;;;;8.23;7.55;;;;;;;;;;6282449;22;20019;-92
2023/05/13 07:59:31;;;;;;;8.90;8.07;;;;;;;;;;6307728;22;20018;-92
2023/05/13 08:02:02;;;;;;;8.10;7.47;;;;;;;;;;6281645;22;20019;-93
2023/05/13 08:04:30;;;;;;;7.82;7.30;;;;;;;;;;6282354;22;20072;-92
2023/05/13 08:06:59;;;;;;;7.95;7.25;;;;;;;;;;6282220;22;20015;-92
2023/05/13 08:09:25;;;;;;;8.13;6.90;;;;;;;;;;6282171;22;20026;-91
2023/05/13 08:11:53;;;;;;;7.38;6.50;;;;;;;;;;6281426;22;20098;-91
2023/05/13 08:14:24;;;;;;;9.18;7.05;;;;;;;;;;6307538;22;20069;-91
2023/05/13 08:16:50;;;;;;;6.97;6.05;;;;;;;;;;6281699;22;20022;-91
2023/05/13 08:19:24;;;;;;;7.05;6.43;;;;;;;;;;6281740;22;20027;-91
2023/05/13 08:21:50;;;;;;;8.32;6.05;;;;;;;;;;6281781;22;20015;-91
2023/05/13 08:24:18;;;;;;;6.85;6.43;;;;;;;;;;6281429;22;20027;-91
2023/05/13 08:27:02;;;;;;;6.68;5.97;;;;;;;;;;6281428;22;20065;-92
2023/05/13 08:29:34;;;;;;;6.83;6.23;;;;;;;;;;6307514;22;20011;-91
2023/05/13 08:32:00;;;;;;;7.63;6.30;;;;;;;;;;6282945;22;20502;-92
2023/05/13 08:34:29;;;;;;;6.95;6.10;;;;;;;;;;6282500;22;20119;-92
2023/05/13 08:36:55;;;;;;;6.30;5.60;;;;;;;;;;6281108;22;20446;-91
2023/05/13 08:39:22;;;;;;;9.05;6.40;;;;;;;;;;6281719;22;20046;-91
2023/05/13 08:41:51;;;;;;;6.43;5.82;;;;;;;;;;6306572;22;20047;-90
2023/05/13 08:44:22;;;;;;;6.63;5.45;;;;;;;;;;6281175;22;20019;-91
2023/05/13 08:46:53;;;;;;;6.20;5.70;;;;;;;;;;6280502;22;20019;-91
2023/05/13 08:49:19;;;;;;;5.82;5.30;;;;;;;;;;6281531;22;20022;-91
2023/05/13 08:51:46;;;;;;;5.93;5.40;;;;;;;;;;6282638;22;20022;-92
2023/05/13 08:54:16;;;;;;;5.78;5.20;;;;;;;;;;6307397;22;20023;-91
2023/05/13 08:56:42;;;;;;;5.68;5.07;;;;;;;;;;6282005;22;20019;-92
2023/05/13 08:59:08;;;;;;;5.45;4.88;;;;;;;;;;6281684;22;20098;-93
2023/05/13 09:01:37;;;;;;;5.38;4.88;;;;;;;;;;6281479;22;20022;-92
2023/05/13 09:04:06;;;;;;;5.70;5.25;;;;;;;;;;6282475;22;20026;-91
2023/05/13 09:06:35;;;;;;;4.72;4.43;;;;;;;;;;6283464;22;20504;-91
2023/05/13 09:09:02;;;;;;;5.55;4.97;;;;;;;;;;6284185;22;20514;-91
2023/05/13 09:11:32;;;;;;;7.10;4.30;;;;;;;;;;6308869;22;20348;-91
2023/05/13 09:14:02;;;;;;;7.85;4.70;;;;;;;;;;6283224;22;20094;-92
2023/05/13 09:16:28;;;;;;;5.32;4.68;;;;;;;;;;6282462;22;20023;-91
2023/05/13 09:19:03;;;;;;;6.28;5.00;;;;;;;;;;6282811;22;20022;-91
2023/05/13 09:21:30;;;;;;;5.10;4.60;;;;;;;;;;6282920;22;20015;-91
2023/05/13 09:24:10;;;;;;;4.50;4.20;;;;;;;;;;6283096;22;20120;-91
2023/05/13 09:26:36;;;;;;;9.15;3.80;;;;;;;;;;6308751;22;20019;-92
2023/05/13 09:29:25;;;;;;;5.05;4.00;;;;;;;;;;6282677;22;20022;-91
2023/05/13 09:31:53;;;;;;;5.22;3.40;;;;;;;;;;6309552;22;20011;-91
2023/05/13 09:34:30;;;;;;;4.70;3.72;;;;;;;;;;6308531;22;20015;-91
2023/05/13 09:36:59;;;;;;;6.20;3.90;;;;;;;;;;6283042;22;20081;-91
2023/05/13 09:39:25;;;;;;;3.08;2.72;;;;;;;;;;6309748;22;20018;-92
2023/05/13 09:41:52;;;;;;;3.85;2.90;;;;;;;;;;6282560;22;20102;-93
2023/05/13 09:44:20;;;;;;;6.63;2.38;;;;;;;;;;6283769;22;20306;-92
2023/05/13 09:46:46;;;;;;;4.85;2.55;;;;;;;;;;6282040;22;20144;-92
2023/05/13 09:49:16;;;;;;;3.83;2.60;;;;;;;;;;6282800;22;20453;-92
2023/05/13 09:51:44;;;;;;;3.08;2.40;;;;;;;;;;6311900;22;20016;-94
2023/05/13 09:54:10;;;;;;;2.08;1.88;;;;;;;;;;6284110;22;20069;-93
2023/05/13 09:56:39;;;;;;;5.35;2.25;;;;;;;;;;6282769;22;20360;-93
2023/05/13 09:59:07;;;;;;;1.95;1.60;;;;;;;;;;6282959;22;20050;-92
2023/05/13 10:01:37;;;;;;;7.32;1.75;;;;;;;;;;6283819;22;20430;-92
2023/05/13 10:04:05;;;;;;;2.35;1.55;;;;;;;;;;6283789;22;20019;-92
2023/05/13 10:06:31;;;;;;;3.15;2.28;;;;;;;;;;6308719;22;20015;-92
2023/05/13 10:09:03;;;;;;;2.55;1.90;;;;;;;;;;6282645;22;20019;-92
2023/05/13 10:11:34;;;;;;;7.22;2.20;;;;;;;;;;6282732;22;20103;-92
2023/05/13 10:14:01;;;;;;;2.20;1.90;;;;;;;;;;6282858;22;20381;-91
2023/05/13 10:16:30;;;;;;;3.25;1.95;;;;;;;;;;6281685;22;20075;-91
2023/05/13 10:19:00;;;;;;;3.00;1.67;;;;;;;;;;6282431;22;20015;-91
2023/05/13 10:21:28;;;;;;;3.55;1.10;;;;;;;;;;6308468;22;20019;-91
2023/05/13 10:23:56;;;;;;;3.45;1.58;;;;;;;;;;6281880;22;20025;-91
2023/05/13 10:26:22;;;;;;;2.88;1.25;;;;;;;;;;6282052;22;20337;-92
2023/05/13 10:28:51;;;;;;;5.47;1.73;;;;;;;;;;6282773;22;20019;-91
2023/05/13 10:31:17;;;;;;;4.03;1.80;;;;;;;;;;6282428;22;20472;-92
2023/05/13 10:33:46;;;;;;;5.22;1.73;;;;;;;;;;6308195;22;20053;-91
2023/05/13 10:36:12;;;;;;;3.67;2.05;;;;;;;;;;6282600;22;20015;-91
2023/05/13 10:38:57;;;;;;;7.40;2.22;;;;;;;;;;6282565;22;20043;-91
2023/05/13 10:41:34;;;;;;;2.97;1.10;;;;;;;;;;6282394;22;20055;-91
2023/05/13 10:44:03;;;;;;;5.22;1.48;;;;;;;;;;6308476;22;20015;-92
2023/05/13 10:46:38;;;;;;;2.85;1.50;;;;;;;;;;6282281;22;20015;-94
2023/05/13 10:49:07;;;;;;;2.30;1.77;;;;;;;;;;6282863;22;20398;-90
2023/05/13 10:51:33;;;;;;;3.28;1.40;;;;;;;;;;6308649;22;20019;-91
2023/05/13 10:54:17;;;;;;;2.17;1.63;;;;;;;;;;6281639;22;20022;-90
2023/05/13 10:56:43;;;;;;;3.13;1.27;;;;;;;;;;6282622;22;20026;-91
2023/05/13 10:59:11;;;;;;;3.58;1.50;;;;;;;;;;6308193;22;20015;-90
2023/05/13 11:01:46;;;;;;;3.70;1.33;;;;;;;;;;6282618;22;20057;-90
2023/05/13 11:04:11;;;;;;;;;;;;;;;;;;6285034;22;20015;-89
2023/05/13 11:06:41;;;;;;;6.03;2.05;;;;;;;;;;6311374;22;19976;-90
2023/05/13 11:09:14;;;;;;;4.80;1.30;;;;;;;;;;6310892;22;20015;-92
2023/05/13 11:11:43;;;;;;;2.13;1.17;;;;;;;;;;6289902;22;20003;-90
2023/05/13 11:14:23;;;;;;;1.92;0.95;;;;;;;;;;6334497;22;20027;-91
2023/05/13 11:17:03;;;;;;;3.80;1.00;;;;;;;;;;6305651;22;20003;-91
2023/05/13 11:19:34;;;;;;;5.13;1.10;;;;;;;;;;6286423;22;20097;-90
2023/05/13 11:22:05;;;;;;;;;;;;;;;;;;6287040;22;20109;-91
2023/05/13 11:24:32;;;;;;;3.55;0.77;;;;;;;;;;6310022;22;20001;-90
2023/05/13 11:27:21;;;;;;;5.85;1.10;;;;;;;;;;6281635;22;20015;-92
2023/05/13 11:29:51;;;;;;;4.97;1.10;;;;;;;;;;6282313;22;20019;-91
2023/05/13 11:32:35;;;;;;;2.40;1.08;;;;;;;;;;6282001;22;20019;-90
2023/05/13 11:35:04;;;;;;;3.22;1.15;;;;;;;;;;6308134;22;20064;-92
2023/05/13 11:37:31;;;;;;;2.08;0.88;;;;;;;;;;6307959;22;20046;-89
2023/05/13 11:39:57;;;;;;;3.85;0.93;;;;;;;;;;6281816;22;20090;-89
2023/05/13 11:42:24;;;;;;;2.17;1.25;;;;;;;;;;6281448;22;20019;-91
2023/05/13 11:44:53;;;;;;;6.43;0.88;;;;;;;;;;6281471;22;20057;-90
2023/05/13 11:47:28;;;;;;;2.17;1.00;;;;;;;;;;6308250;22;20445;-90
2023/05/13 11:49:54;;;;;;;6.70;1.10;;;;;;;;;;6307611;22;20015;-90
2023/05/13 11:52:21;;;;;;;2.95;1.00;;;;;;;;;;6307086;22;20502;-90
2023/05/13 11:54:48;;;;;;;1.00;0.70;;;;;;;;;;6281261;22;20053;-90
2023/05/13 11:57:19;;;;;;;6.70;0.90;;;;;;;;;;6281522;22;20029;-89
2023/05/13 11:59:49;;;;;;;1.55;0.93;;;;;;;;;;6281561;22;20022;-89
2023/05/13 12:02:17;;;;;;;2.67;0.95;;;;;;;;;;6281373;22;20475;-89
2023/05/13 12:04:44;;;;;;;4.45;1.00;;;;;;;;;;6306872;22;20073;-90
2023/05/13 12:07:13;;;;;;;4.82;0.70;;;;;;;;;;6281326;22;20015;-89
2023/05/13 12:09:41;;;;;;;3.10;0.80;;;;;;;;;;6281492;22;20073;-89
2023/05/13 12:12:07;;;;;;;3.95;0.60;;;;;;;;;;6280989;22;20023;-89
2023/05/13 12:14:34;;;;;;;3.38;1.30;;;;;;;;;;6281239;22;20015;-88
2023/05/13 12:17:02;;;;;;;3.80;0.70;;;;;;;;;;6280916;22;20015;-88
2023/05/13 12:19:30;;;;;;;3.78;0.90;;;;;;;;;;6306887;22;20015;-88
2023/05/13 12:21:58;;;;;;;1.33;0.75;;;;;;;;;;6281600;22;20021;-89
2023/05/13 12:24:25;;;;;;;3.28;0.65;;;;;;;;;;6281409;22;20097;-89
2023/05/13 12:26:51;;;;;;;2.88;1.10;;;;;;;;;;6307001;22;20018;-89
2023/05/13 12:29:19;;;;;;;5.40;0.77;;;;;;;;;;6281216;22;20073;-89
2023/05/13 12:32:02;;;;;;;2.67;0.77;;;;;;;;;;6307294;22;20012;-90
2023/05/13 12:34:39;;;;;;;2.08;0.50;;;;;;;;;;6281421;22;20019;-90
2023/05/13 12:37:10;;;;;;;3.20;0.70;;;;;;;;;;6281374;22;20023;-89
2023/05/13 12:39:36;;;;;;;1.90;0.73;;;;;;;;;;6284040;22;20050;-91
2023/05/13 12:42:02;;;;;;;3.30;0.88;;;;;;;;;;6309255;22;20038;-91
2023/05/13 12:44:30;;;;;;;2.50;0.63;;;;;;;;;;6282890;22;20020;-91
2023/05/13 12:46:58;;;;;;;2.45;0.75;;;;;;;;;;6308652;22;20376;-90
2023/05/13 12:49:24;;;;;;;3.35;0.88;;;;;;;;;;6309069;22;20109;-91
2023/05/13 12:51:50;;;;;;;3.25;0.70;;;;;;;;;;6282897;22;20019;-91
2023/05/13 12:54:17;;;;;;;3.67;0.60;;;;;;;;;;6283207;22;20098;-91
2023/05/13 12:56:43;;;;;;;3.35;0.80;;;;;;;;;;6309052;22;20034;-91
2023/05/13 12:59:09;;;;;;;3.40;0.80;;;;;;;;;;6283260;22;20388;-91
2023/05/13 13:01:38;;;;;;;3.30;0.70;;;;;;;;;;6309313;22;20011;-91
2023/05/13 13:04:04;;;;;;;2.65;0.52;;;;;;;;;;6309854;22;20015;-91
2023/05/13 13:06:33;;;;;;;3.30;0.90;;;;;;;;;;6282963;22;20015;-90
2023/05/13 13:08:59;;;;;;;1.70;0.50;;;;;;;;;;6308821;22;20015;-91
2023/05/13 13:11:25;;;;;;;3.30;0.50;;;;;;;;;;6283157;22;20015;-91
2023/05/13 13:13:51;;;;;;;2.88;0.60;;;;;;;;;;6282856;22;20016;-91
2023/05/13 13:16:20;;;;;;;2.10;0.75;;;;;;;;;;6308412;22;20041;-91
2023/05/13 13:18:49;;;;;;;1.88;0.73;;;;;;;;;;6283130;22;20452;-91
2023/05/13 13:21:15;;;;;;;1.42;0.52;;;;;;;;;;6283169;22;20056;-90
2023/05/13 13:23:41;;;;;;;3.53;0.60;;;;;;;;;;6282653;22;20019;-91
2023/05/13 13:26:07;;;;;;;4.10;0.70;;;;;;;;;;6282908;22;20015;-90
2023/05/13 13:28:36;;;;;;;2.50;0.60;;;;;;;;;;6282829;22;20068;-90
2023/05/13 13:31:02;;;;;;;2.13;0.70;;;;;;;;;;6282690;22;20019;-89
2023/05/13 13:33:28;;;;;;;3.50;0.63;;;;;;;;;;6282690;22;20015;-90
2023/05/13 13:35:54;;;;;;;2.58;0.60;;;;;;;;;;6282434;22;20376;-89
2023/05/13 13:38:20;;;;;;;2.28;0.57;;;;;;;;;;6308715;22;20018;-90
2023/05/13 13:40:49;;;;;;;3.20;0.80;;;;;;;;;;6282946;22;20069;-89
2023/05/13 13:43:16;;;;;;;3.85;0.80;;;;;;;;;;6282835;22;20338;-88
2023/05/13 13:45:42;;;;;;;2.15;0.63;;;;;;;;;;6282127;22;20061;-88
2023/05/13 13:48:10;;;;;;;5.30;0.80;;;;;;;;;;6308416;22;20510;-89
2023/05/13 13:50:36;;;;;;;3.80;0.60;;;;;;;;;;6282555;22;20015;-89
2023/05/13 13:53:05;;;;;;;4.15;0.60;;;;;;;;;;6308737;22;20102;-89
2023/05/13 13:55:31;;;;;;;2.97;0.50;;;;;;;;;;6308688;22;20403;-89
2023/05/13 13:57:57;;;;;;;2.35;0.40;;;;;;;;;;6308271;22;20015;-89
2023/05/13 14:00:26;;;;;;;2.60;0.50;;;;;;;;;;6282519;22;20441;-89
2023/05/13 14:02:52;;;;;;;2.50;0.52;;;;;;;;;;6282354;22;20076;-89
2023/05/13 14:05:18;;;;;;;1.85;0.50;;;;;;;;;;6282397;22;20413;-89
2023/05/13 14:07:47;;;;;;;2.88;0.60;;;;;;;;;;6282501;22;20015;-89
2023/05/13 14:10:13;;;;;;;1.55;0.50;;;;;;;;;;6282853;22;20050;-88
2023/05/13 14:12:39;;;;;;;4.65;0.55;;;;;;;;;;6308405;22;20383;-88
2023/05/13 14:15:05;;;;;;;2.25;0.40;;;;;;;;;;6281717;22;20011;-89
2023/05/13 14:17:35;;;;;;;2.05;0.40;;;;;;;;;;6282192;22;20051;-89
2023/05/13 14:20:01;;;;;;;2.08;0.50;;;;;;;;;;6282355;22;20069;-89
2023/05/13 14:22:27;;;;;;;3.80;0.45;;;;;;;;;;6282803;22;20019;-89
2023/05/13 14:24:53;;;;;;;2.42;0.40;;;;;;;;;;6282315;22;20080;-90
2023/05/13 14:27:20;;;;;;;1.80;0.52;;;;;;;;;;6281984;22;20015;-90
2023/05/13 14:29:49;;;;;;;2.63;0.50;;;;;;;;;;6281961;22;20072;-89
2023/05/13 14:32:16;;;;;;;1.10;0.40;;;;;;;;;;6282221;22;20016;-90
2023/05/13 14:34:44;;;;;;;2.90;0.50;;;;;;;;;;6282569;22;20338;-89
2023/05/13 14:37:11;;;;;;;2.03;0.50;;;;;;;;;;6282188;22;20011;-89
2023/05/13 14:39:37;;;;;;;2.50;0.50;;;;;;;;;;6307760;22;20019;-90
2023/05/13 14:42:03;;;;;;;2.20;0.40;;;;;;;;;;6307498;22;20022;-91
2023/05/13 14:44:32;;;;;;;1.63;0.60;;;;;;;;;;6308093;22;20022;-91
2023/05/13 14:46:58;;;;;;;1.92;0.40;;;;;;;;;;6281230;22;20012;-89
2023/05/13 14:49:24;;;;;;;2.45;0.50;;;;;;;;;;6281895;22;20047;-89